sensor_id;sensor_type;location;lat;lon;timestamp;temperature;humidity
19220;DHT22;9744;49.364;7.484;2023-11-21T00:02:01;7.10;99.90
19220;DHT22;9744;49.364;7.484;2023-11-21T00:08:49;7.10;99.90
19220;DHT22;9744;49.364;7.484;2023-11-21T00:11:16;7.10;99.90
19220;DHT22;9744;49.364;7.484;2023-11-21T00:13:44;7.10;99.90
19220;DHT22;9744;49.364;7.484;2023-11-21T00:16:11;7.20;99.90
19220;DHT22;9744;49.364;7.484;2023-11-21T00:18:38;7.10;99.90
19220;DHT22;9744;49.364;7.484;2023-11-21T00:21:06;7.20;99.90
19220;DHT22;9744;49.364;7.484;2023-11-21T00:23:33;7.10;99.90
19220;DHT22;9744;49.364;7.484;2023-11-21T00:26:02;7.20;99.90
19220;DHT22;9744;49.364;7.484;2023-11-21T00:28:29;7.20;99.90
19220;DHT22;9744;49.364;7.484;2023-11-21T00:30:57;7.20;99.90
19220;DHT22;9744;49.364;7.484;2023-11-21T00:33:24;7.20;99.90
19220;DHT22;9744;49.364;7.484;2023-11-21T00:35:53;7.20;99.90
19220;DHT22;9744;49.364;7.484;2023-11-21T00:38:20;7.20;99.90
19220;DHT22;9744;49.364;7.484;2023-11-21T00:40:50;7.20;99.90
19220;DHT22;9744;49.364;7.484;2023-11-21T00:43:23;7.10;99.90
19220;DHT22;9744;49.364;7.484;2023-11-21T00:45:50;7.20;99.90
19220;DHT22;9744;49.364;7.484;2023-11-21T00:48:19;7.20;99.90
19220;DHT22;9744;49.364;7.484;2023-11-21T00:50:47;7.20;99.90
19220;DHT22;9744;49.364;7.484;2023-11-21T00:53:15;7.20;99.90
19220;DHT22;9744;49.364;7.484;2023-11-21T00:55:43;7.20;99.90
19220;DHT22;9744;49.364;7.484;2023-11-21T00:58:10;7.20;99.90
19220;DHT22;9744;49.364;7.484;2023-11-21T01:00:39;7.20;99.90
19220;DHT22;9744;49.364;7.484;2023-11-21T01:07:12;7.20;99.90
19220;DHT22;9744;49.364;7.484;2023-11-21T01:09:41;7.20;99.90
19220;DHT22;9744;49.364;7.484;2023-11-21T01:12:11;7.20;99.90
19220;DHT22;9744;49.364;7.484;2023-11-21T01:14:38;7.20;99.90
19220;DHT22;9744;49.364;7.484;2023-11-21T01:17:06;7.20;99.90
19220;DHT22;9744;49.364;7.484;2023-11-21T01:19:34;7.20;99.90
19220;DHT22;9744;49.364;7.484;2023-11-21T01:22:01;7.20;99.90
19220;DHT22;9744;49.364;7.484;2023-11-21T01:24:29;7.20;99.90
19220;DHT22;9744;49.364;7.484;2023-11-21T01:26:57;7.20;99.90
19220;DHT22;9744;49.364;7.484;2023-11-21T01:29:24;7.20;99.90
19220;DHT22;9744;49.364;7.484;2023-11-21T01:35:05;7.20;99.90
19220;DHT22;9744;49.364;7.484;2023-11-21T01:37:34;7.20;99.90
19220;DHT22;9744;49.364;7.484;2023-11-21T01:40:02;7.20;99.90
19220;DHT22;9744;49.364;7.484;2023-11-21T01:42:33;7.20;99.90
19220;DHT22;9744;49.364;7.484;2023-11-21T01:45:01;7.20;99.90
19220;DHT22;9744;49.364;7.484;2023-11-21T01:47:30;7.20;99.90
19220;DHT22;9744;49.364;7.484;2023-11-21T01:49:59;7.20;99.90
19220;DHT22;9744;49.364;7.484;2023-11-21T01:56:49;7.20;99.90
19220;DHT22;9744;49.364;7.484;2023-11-21T01:59:20;7.20;99.90
19220;DHT22;9744;49.364;7.484;2023-11-21T02:01:48;7.20;99.90
19220;DHT22;9744;49.364;7.484;2023-11-21T02:04:16;7.20;99.90
19220;DHT22;9744;49.364;7.484;2023-11-21T02:06:43;7.20;99.90
19220;DHT22;9744;49.364;7.484;2023-11-21T02:09:10;7.10;99.90
19220;DHT22;9744;49.364;7.484;2023-11-21T02:12:06;7.20;99.90
19220;DHT22;9744;49.364;7.484;2023-11-21T02:14:36;7.10;99.90
19220;DHT22;9744;49.364;7.484;2023-11-21T02:17:06;7.10;99.90
19220;DHT22;9744;49.364;7.484;2023-11-21T02:19:34;7.20;99.90
19220;DHT22;9744;49.364;7.484;2023-11-21T02:22:01;7.20;99.90
19220;DHT22;9744;49.364;7.484;2023-11-21T02:24:33;7.20;99.90
19220;DHT22;9744;49.364;7.484;2023-11-21T02:27:01;7.20;99.90
19220;DHT22;9744;49.364;7.484;2023-11-21T02:29:29;7.20;99.90
19220;DHT22;9744;49.364;7.484;2023-11-21T02:31:56;7.40;99.90
19220;DHT22;9744;49.364;7.484;2023-11-21T02:34:24;7.30;99.90
19220;DHT22;9744;49.364;7.484;2023-11-21T02:36:51;7.20;99.90
19220;DHT22;9744;49.364;7.484;2023-11-21T02:39:19;7.20;99.90
19220;DHT22;9744;49.364;7.484;2023-11-21T02:41:49;7.20;99.90
19220;DHT22;9744;49.364;7.484;2023-11-21T02:44:17;7.20;99.90
19220;DHT22;9744;49.364;7.484;2023-11-21T02:46:45;7.20;99.90
19220;DHT22;9744;49.364;7.484;2023-11-21T02:49:12;7.20;99.90
19220;DHT22;9744;49.364;7.484;2023-11-21T02:51:40;7.20;99.90
19220;DHT22;9744;49.364;7.484;2023-11-21T02:54:11;7.20;99.90
19220;DHT22;9744;49.364;7.484;2023-11-21T02:56:39;7.20;99.90
19220;DHT22;9744;49.364;7.484;2023-11-21T02:59:08;7.20;99.90
19220;DHT22;9744;49.364;7.484;2023-11-21T03:01:35;7.30;99.90
19220;DHT22;9744;49.364;7.484;2023-11-21T03:04:02;7.30;99.90
19220;DHT22;9744;49.364;7.484;2023-11-21T03:06:30;7.30;99.90
19220;DHT22;9744;49.364;7.484;2023-11-21T03:08:57;7.30;99.90
19220;DHT22;9744;49.364;7.484;2023-11-21T03:11:24;7.30;99.90
19220;DHT22;9744;49.364;7.484;2023-11-21T03:13:51;7.30;99.90
19220;DHT22;9744;49.364;7.484;2023-11-21T03:16:22;7.30;99.90
19220;DHT22;9744;49.364;7.484;2023-11-21T03:18:49;7.30;99.90
19220;DHT22;9744;49.364;7.484;2023-11-21T03:21:18;7.30;99.90
19220;DHT22;9744;49.364;7.484;2023-11-21T03:23:45;7.20;99.90
19220;DHT22;9744;49.364;7.484;2023-11-21T03:26:13;7.20;99.90
19220;DHT22;9744;49.364;7.484;2023-11-21T03:28:40;7.20;99.90
19220;DHT22;9744;49.364;7.484;2023-11-21T03:31:08;7.20;99.90
19220;DHT22;9744;49.364;7.484;2023-11-21T03:33:37;7.10;99.90
19220;DHT22;9744;49.364;7.484;2023-11-21T03:36:05;7.20;99.90
19220;DHT22;9744;49.364;7.484;2023-11-21T03:38:33;7.20;99.90
19220;DHT22;9744;49.364;7.484;2023-11-21T03:41:00;7.20;99.90
19220;DHT22;9744;49.364;7.484;2023-11-21T03:43:28;7.20;99.90
19220;DHT22;9744;49.364;7.484;2023-11-21T03:45:55;7.20;99.90
19220;DHT22;9744;49.364;7.484;2023-11-21T03:48:22;7.10;99.90
19220;DHT22;9744;49.364;7.484;2023-11-21T03:50:51;7.10;99.90
19220;DHT22;9744;49.364;7.484;2023-11-21T03:53:18;7.10;99.90
19220;DHT22;9744;49.364;7.484;2023-11-21T03:55:45;7.10;99.90
19220;DHT22;9744;49.364;7.484;2023-11-21T03:58:12;7.20;99.90
19220;DHT22;9744;49.364;7.484;2023-11-21T04:00:40;7.20;99.90
19220;DHT22;9744;49.364;7.484;2023-11-21T04:03:07;7.10;99.90
19220;DHT22;9744;49.364;7.484;2023-11-21T04:05:34;7.20;99.90
19220;DHT22;9744;49.364;7.484;2023-11-21T04:08:03;7.20;99.90
19220;DHT22;9744;49.364;7.484;2023-11-21T04:10:31;7.10;99.90
19220;DHT22;9744;49.364;7.484;2023-11-21T04:12:58;7.10;99.90
19220;DHT22;9744;49.364;7.484;2023-11-21T04:15:26;7.10;99.90
19220;DHT22;9744;49.364;7.484;2023-11-21T04:17:53;7.10;99.90
19220;DHT22;9744;49.364;7.484;2023-11-21T04:20:20;7.10;99.90
19220;DHT22;9744;49.364;7.484;2023-11-21T04:22:49;7.10;99.90
19220;DHT22;9744;49.364;7.484;2023-11-21T04:25:18;7.20;99.90
19220;DHT22;9744;49.364;7.484;2023-11-21T04:27:45;7.40;99.90
19220;DHT22;9744;49.364;7.484;2023-11-21T04:30:13;7.60;99.90
19220;DHT22;9744;49.364;7.484;2023-11-21T04:32:46;7.70;99.90
19220;DHT22;9744;49.364;7.484;2023-11-21T04:35:13;7.80;99.90
19220;DHT22;9744;49.364;7.484;2023-11-21T04:37:41;7.90;99.90
19220;DHT22;9744;49.364;7.484;2023-11-21T04:40:09;8.00;99.90
19220;DHT22;9744;49.364;7.484;2023-11-21T04:42:38;8.10;99.90
19220;DHT22;9744;49.364;7.484;2023-11-21T04:45:06;8.10;99.90
19220;DHT22;9744;49.364;7.484;2023-11-21T04:47:35;8.20;99.90
19220;DHT22;9744;49.364;7.484;2023-11-21T04:50:02;8.20;99.90
19220;DHT22;9744;49.364;7.484;2023-11-21T04:52:30;8.20;99.90
19220;DHT22;9744;49.364;7.484;2023-11-21T04:54:59;8.30;99.90
19220;DHT22;9744;49.364;7.484;2023-11-21T04:57:27;8.30;99.90
19220;DHT22;9744;49.364;7.484;2023-11-21T04:59:56;8.30;99.90
19220;DHT22;9744;49.364;7.484;2023-11-21T05:02:24;8.30;99.90
19220;DHT22;9744;49.364;7.484;2023-11-21T05:04:51;8.30;99.90
19220;DHT22;9744;49.364;7.484;2023-11-21T05:07:19;8.40;99.90
19220;DHT22;9744;49.364;7.484;2023-11-21T05:09:48;8.40;99.90
19220;DHT22;9744;49.364;7.484;2023-11-21T05:12:16;8.40;99.90
19220;DHT22;9744;49.364;7.484;2023-11-21T05:14:46;8.30;99.90
19220;DHT22;9744;49.364;7.484;2023-11-21T05:17:16;8.30;99.90
19220;DHT22;9744;49.364;7.484;2023-11-21T05:19:43;8.30;99.90
19220;DHT22;9744;49.364;7.484;2023-11-21T05:22:12;8.30;99.90
19220;DHT22;9744;49.364;7.484;2023-11-21T05:24:39;8.30;99.90
19220;DHT22;9744;49.364;7.484;2023-11-21T05:27:06;8.30;99.90
19220;DHT22;9744;49.364;7.484;2023-11-21T05:29:36;8.30;99.90
19220;DHT22;9744;49.364;7.484;2023-11-21T05:32:04;8.30;99.90
19220;DHT22;9744;49.364;7.484;2023-11-21T05:34:33;8.30;99.90
19220;DHT22;9744;49.364;7.484;2023-11-21T05:37:01;8.30;99.90
19220;DHT22;9744;49.364;7.484;2023-11-21T05:39:31;8.40;99.90
19220;DHT22;9744;49.364;7.484;2023-11-21T05:41:58;8.30;99.90
19220;DHT22;9744;49.364;7.484;2023-11-21T05:44:25;8.30;99.90
19220;DHT22;9744;49.364;7.484;2023-11-21T05:46:53;8.30;99.90
19220;DHT22;9744;49.364;7.484;2023-11-21T05:49:20;8.30;99.90
19220;DHT22;9744;49.364;7.484;2023-11-21T05:51:49;8.40;99.90
19220;DHT22;9744;49.364;7.484;2023-11-21T05:54:21;8.30;99.90
19220;DHT22;9744;49.364;7.484;2023-11-21T05:56:49;8.30;99.90
19220;DHT22;9744;49.364;7.484;2023-11-21T05:59:16;8.40;99.90
19220;DHT22;9744;49.364;7.484;2023-11-21T06:01:43;8.30;99.90
19220;DHT22;9744;49.364;7.484;2023-11-21T06:04:11;8.30;99.90
19220;DHT22;9744;49.364;7.484;2023-11-21T06:06:39;8.30;99.90
19220;DHT22;9744;49.364;7.484;2023-11-21T06:09:07;8.40;99.90
19220;DHT22;9744;49.364;7.484;2023-11-21T06:11:35;8.40;99.90
19220;DHT22;9744;49.364;7.484;2023-11-21T06:14:03;8.30;99.90
19220;DHT22;9744;49.364;7.484;2023-11-21T06:16:31;8.40;99.90
19220;DHT22;9744;49.364;7.484;2023-11-21T06:18:59;8.40;99.90
19220;DHT22;9744;49.364;7.484;2023-11-21T06:21:27;8.40;99.90
19220;DHT22;9744;49.364;7.484;2023-11-21T06:23:54;8.40;99.90
19220;DHT22;9744;49.364;7.484;2023-11-21T06:26:24;8.40;99.90
19220;DHT22;9744;49.364;7.484;2023-11-21T06:28:51;8.40;99.90
19220;DHT22;9744;49.364;7.484;2023-11-21T06:31:19;8.40;99.90
19220;DHT22;9744;49.364;7.484;2023-11-21T06:33:47;8.40;99.90
19220;DHT22;9744;49.364;7.484;2023-11-21T06:36:15;8.30;99.90
19220;DHT22;9744;49.364;7.484;2023-11-21T06:38:42;8.30;99.90
19220;DHT22;9744;49.364;7.484;2023-11-21T06:41:11;8.40;99.90
19220;DHT22;9744;49.364;7.484;2023-11-21T06:43:42;8.40;99.90
19220;DHT22;9744;49.364;7.484;2023-11-21T06:46:12;8.40;99.90
19220;DHT22;9744;49.364;7.484;2023-11-21T06:48:42;8.40;99.90
19220;DHT22;9744;49.364;7.484;2023-11-21T06:51:09;8.30;99.90
19220;DHT22;9744;49.364;7.484;2023-11-21T06:53:37;8.30;99.90
19220;DHT22;9744;49.364;7.484;2023-11-21T06:56:05;8.30;99.90
19220;DHT22;9744;49.364;7.484;2023-11-21T06:58:47;8.30;99.90
19220;DHT22;9744;49.364;7.484;2023-11-21T07:01:15;8.30;99.90
19220;DHT22;9744;49.364;7.484;2023-11-21T07:03:42;8.30;99.90
19220;DHT22;9744;49.364;7.484;2023-11-21T07:06:09;8.30;99.90
19220;DHT22;9744;49.364;7.484;2023-11-21T07:08:37;8.30;99.90
19220;DHT22;9744;49.364;7.484;2023-11-21T07:11:04;8.30;99.90
19220;DHT22;9744;49.364;7.484;2023-11-21T07:13:32;8.30;99.90
19220;DHT22;9744;49.364;7.484;2023-11-21T07:16:00;8.30;99.90
19220;DHT22;9744;49.364;7.484;2023-11-21T07:18:28;8.30;99.90
19220;DHT22;9744;49.364;7.484;2023-11-21T07:20:56;8.30;99.90
19220;DHT22;9744;49.364;7.484;2023-11-21T07:23:24;8.40;99.90
19220;DHT22;9744;49.364;7.484;2023-11-21T07:25:51;8.30;99.90
19220;DHT22;9744;49.364;7.484;2023-11-21T07:28:20;8.40;99.90
19220;DHT22;9744;49.364;7.484;2023-11-21T07:30:47;8.30;99.90
19220;DHT22;9744;49.364;7.484;2023-11-21T07:33:15;8.30;99.90
19220;DHT22;9744;49.364;7.484;2023-11-21T07:35:43;8.30;99.90
19220;DHT22;9744;49.364;7.484;2023-11-21T07:38:10;8.40;99.90
19220;DHT22;9744;49.364;7.484;2023-11-21T07:40:37;8.40;99.90
19220;DHT22;9744;49.364;7.484;2023-11-21T07:43:04;8.40;99.90
19220;DHT22;9744;49.364;7.484;2023-11-21T07:45:32;8.40;99.90
19220;DHT22;9744;49.364;7.484;2023-11-21T07:48:00;8.40;99.90
19220;DHT22;9744;49.364;7.484;2023-11-21T07:50:30;8.40;99.90
19220;DHT22;9744;49.364;7.484;2023-11-21T07:52:58;8.40;99.90
19220;DHT22;9744;49.364;7.484;2023-11-21T07:55:25;8.40;99.90
19220;DHT22;9744;49.364;7.484;2023-11-21T07:57:52;8.40;99.90
19220;DHT22;9744;49.364;7.484;2023-11-21T08:00:19;8.40;99.90
19220;DHT22;9744;49.364;7.484;2023-11-21T08:02:47;8.40;99.90
19220;DHT22;9744;49.364;7.484;2023-11-21T08:05:14;8.40;99.90
19220;DHT22;9744;49.364;7.484;2023-11-21T08:07:43;8.40;99.90
19220;DHT22;9744;49.364;7.484;2023-11-21T08:10:10;8.40;99.90
19220;DHT22;9744;49.364;7.484;2023-11-21T08:12:37;8.50;99.90
19220;DHT22;9744;49.364;7.484;2023-11-21T08:15:06;8.40;99.90
19220;DHT22;9744;49.364;7.484;2023-11-21T08:17:34;8.40;99.90
19220;DHT22;9744;49.364;7.484;2023-11-21T08:20:01;8.40;99.90
19220;DHT22;9744;49.364;7.484;2023-11-21T08:22:30;8.40;99.90
19220;DHT22;9744;49.364;7.484;2023-11-21T08:24:59;8.40;99.90
19220;DHT22;9744;49.364;7.484;2023-11-21T08:27:26;8.40;99.90
19220;DHT22;9744;49.364;7.484;2023-11-21T08:29:53;8.40;99.90
19220;DHT22;9744;49.364;7.484;2023-11-21T08:32:22;8.40;99.90
19220;DHT22;9744;49.364;7.484;2023-11-21T08:34:49;8.40;99.90
19220;DHT22;9744;49.364;7.484;2023-11-21T08:37:17;8.40;99.90
19220;DHT22;9744;49.364;7.484;2023-11-21T08:39:44;8.40;99.90
19220;DHT22;9744;49.364;7.484;2023-11-21T08:42:13;8.40;99.90
19220;DHT22;9744;49.364;7.484;2023-11-21T08:44:41;8.40;99.90
19220;DHT22;9744;49.364;7.484;2023-11-21T08:47:08;8.40;99.90
19220;DHT22;9744;49.364;7.484;2023-11-21T08:49:35;8.40;99.90
19220;DHT22;9744;49.364;7.484;2023-11-21T08:52:04;8.40;99.90
19220;DHT22;9744;49.364;7.484;2023-11-21T08:54:32;8.40;99.90
19220;DHT22;9744;49.364;7.484;2023-11-21T08:57:00;8.40;99.90
19220;DHT22;9744;49.364;7.484;2023-11-21T08:59:28;8.40;99.90
19220;DHT22;9744;49.364;7.484;2023-11-21T09:01:56;8.40;99.90
19220;DHT22;9744;49.364;7.484;2023-11-21T09:04:24;8.40;99.90
19220;DHT22;9744;49.364;7.484;2023-11-21T09:06:50;8.40;99.90
19220;DHT22;9744;49.364;7.484;2023-11-21T09:09:17;8.40;99.90
19220;DHT22;9744;49.364;7.484;2023-11-21T09:11:45;8.40;99.90
19220;DHT22;9744;49.364;7.484;2023-11-21T09:14:15;8.40;99.90
19220;DHT22;9744;49.364;7.484;2023-11-21T09:16:45;8.40;99.90
19220;DHT22;9744;49.364;7.484;2023-11-21T09:19:12;8.40;99.90
19220;DHT22;9744;49.364;7.484;2023-11-21T09:21:41;8.40;99.90
19220;DHT22;9744;49.364;7.484;2023-11-21T09:24:08;8.40;99.90
19220;DHT22;9744;49.364;7.484;2023-11-21T09:26:36;8.40;99.90
19220;DHT22;9744;49.364;7.484;2023-11-21T09:29:03;8.40;99.90
19220;DHT22;9744;49.364;7.484;2023-11-21T09:31:30;8.40;99.90
19220;DHT22;9744;49.364;7.484;2023-11-21T09:34:00;8.40;99.90
19220;DHT22;9744;49.364;7.484;2023-11-21T09:36:28;8.40;99.90
19220;DHT22;9744;49.364;7.484;2023-11-21T09:38:56;8.40;99.90
19220;DHT22;9744;49.364;7.484;2023-11-21T09:41:29;8.40;99.90
19220;DHT22;9744;49.364;7.484;2023-11-21T09:43:57;8.40;99.90
19220;DHT22;9744;49.364;7.484;2023-11-21T09:46:28;8.40;99.90
19220;DHT22;9744;49.364;7.484;2023-11-21T09:48:57;8.40;99.90
19220;DHT22;9744;49.364;7.484;2023-11-21T09:51:30;8.40;99.90
19220;DHT22;9744;49.364;7.484;2023-11-21T09:54:03;8.40;99.90
19220;DHT22;9744;49.364;7.484;2023-11-21T09:56:32;8.40;99.90
19220;DHT22;9744;49.364;7.484;2023-11-21T09:59:00;8.40;99.90
19220;DHT22;9744;49.364;7.484;2023-11-21T10:01:32;8.40;99.90
19220;DHT22;9744;49.364;7.484;2023-11-21T10:04:00;8.40;99.90
19220;DHT22;9744;49.364;7.484;2023-11-21T10:06:30;8.40;99.90
19220;DHT22;9744;49.364;7.484;2023-11-21T10:08:59;8.50;99.90
19220;DHT22;9744;49.364;7.484;2023-11-21T10:11:27;8.50;99.90
19220;DHT22;9744;49.364;7.484;2023-11-21T10:13:58;8.50;99.90
19220;DHT22;9744;49.364;7.484;2023-11-21T10:16:27;8.50;99.90
19220;DHT22;9744;49.364;7.484;2023-11-21T10:18:55;8.50;99.90
19220;DHT22;9744;49.364;7.484;2023-11-21T10:21:23;8.50;99.90
19220;DHT22;9744;49.364;7.484;2023-11-21T10:23:53;8.50;99.90
19220;DHT22;9744;49.364;7.484;2023-11-21T10:26:20;8.60;99.90
19220;DHT22;9744;49.364;7.484;2023-11-21T10:28:56;8.60;99.90
19220;DHT22;9744;49.364;7.484;2023-11-21T10:31:24;8.60;99.90
19220;DHT22;9744;49.364;7.484;2023-11-21T10:33:51;8.60;99.90
19220;DHT22;9744;49.364;7.484;2023-11-21T10:36:25;8.60;99.90
19220;DHT22;9744;49.364;7.484;2023-11-21T10:38:55;8.60;99.90
19220;DHT22;9744;49.364;7.484;2023-11-21T10:41:23;8.60;99.90
19220;DHT22;9744;49.364;7.484;2023-11-21T10:43:53;8.60;99.90
19220;DHT22;9744;49.364;7.484;2023-11-21T10:46:22;8.60;99.90
19220;DHT22;9744;49.364;7.484;2023-11-21T10:48:54;8.60;99.90
19220;DHT22;9744;49.364;7.484;2023-11-21T10:51:22;8.60;99.90
19220;DHT22;9744;49.364;7.484;2023-11-21T10:53:51;8.60;99.90
19220;DHT22;9744;49.364;7.484;2023-11-21T10:56:23;8.60;99.90
19220;DHT22;9744;49.364;7.484;2023-11-21T10:58:50;8.50;99.90
19220;DHT22;9744;49.364;7.484;2023-11-21T11:01:18;8.60;99.90
19220;DHT22;9744;49.364;7.484;2023-11-21T11:03:47;8.60;99.90
19220;DHT22;9744;49.364;7.484;2023-11-21T11:06:15;8.50;99.90
19220;DHT22;9744;49.364;7.484;2023-11-21T11:08:44;8.50;99.90
19220;DHT22;9744;49.364;7.484;2023-11-21T11:11:11;8.60;99.90
19220;DHT22;9744;49.364;7.484;2023-11-21T11:13:43;8.60;99.90
19220;DHT22;9744;49.364;7.484;2023-11-21T11:16:13;8.60;99.90
19220;DHT22;9744;49.364;7.484;2023-11-21T11:18:43;8.60;99.90
19220;DHT22;9744;49.364;7.484;2023-11-21T11:21:24;8.70;99.90
19220;DHT22;9744;49.364;7.484;2023-11-21T11:27:03;8.70;99.90
19220;DHT22;9744;49.364;7.484;2023-11-21T11:29:42;8.70;99.90
19220;DHT22;9744;49.364;7.484;2023-11-21T11:32:17;8.80;99.90
19220;DHT22;9744;49.364;7.484;2023-11-21T11:34:53;8.80;99.90
19220;DHT22;9744;49.364;7.484;2023-11-21T11:37:21;8.80;99.90
19220;DHT22;9744;49.364;7.484;2023-11-21T11:39:49;8.90;99.90
19220;DHT22;9744;49.364;7.484;2023-11-21T11:42:17;8.90;99.90
19220;DHT22;9744;49.364;7.484;2023-11-21T11:44:51;8.90;99.90
19220;DHT22;9744;49.364;7.484;2023-11-21T11:47:24;9.00;99.90
19220;DHT22;9744;49.364;7.484;2023-11-21T11:50:04;9.10;99.90
19220;DHT22;9744;49.364;7.484;2023-11-21T11:52:41;9.30;99.90
19220;DHT22;9744;49.364;7.484;2023-11-21T11:55:10;9.30;99.90
19220;DHT22;9744;49.364;7.484;2023-11-21T11:57:38;9.30;99.90
19220;DHT22;9744;49.364;7.484;2023-11-21T12:00:14;9.50;99.90
19220;DHT22;9744;49.364;7.484;2023-11-21T12:02:47;9.50;99.90
19220;DHT22;9744;49.364;7.484;2023-11-21T12:05:17;9.80;99.90
19220;DHT22;9744;49.364;7.484;2023-11-21T12:07:46;10.00;99.90
19220;DHT22;9744;49.364;7.484;2023-11-21T12:10:15;10.00;99.90
19220;DHT22;9744;49.364;7.484;2023-11-21T12:12:47;10.00;99.90
19220;DHT22;9744;49.364;7.484;2023-11-21T12:15:16;10.00;99.90
19220;DHT22;9744;49.364;7.484;2023-11-21T12:17:45;10.00;99.90
19220;DHT22;9744;49.364;7.484;2023-11-21T12:20:13;10.00;99.90
19220;DHT22;9744;49.364;7.484;2023-11-21T12:22:45;9.90;99.90
19220;DHT22;9744;49.364;7.484;2023-11-21T12:25:15;9.90;99.90
19220;DHT22;9744;49.364;7.484;2023-11-21T12:27:45;9.80;99.90
19220;DHT22;9744;49.364;7.484;2023-11-21T12:30:13;9.70;99.90
19220;DHT22;9744;49.364;7.484;2023-11-21T12:32:43;9.70;99.90
19220;DHT22;9744;49.364;7.484;2023-11-21T12:35:12;9.60;99.90
19220;DHT22;9744;49.364;7.484;2023-11-21T12:37:41;9.60;99.90
19220;DHT22;9744;49.364;7.484;2023-11-21T12:40:10;9.50;99.90
19220;DHT22;9744;49.364;7.484;2023-11-21T12:42:41;9.50;99.90
19220;DHT22;9744;49.364;7.484;2023-11-21T12:45:18;9.50;99.90
19220;DHT22;9744;49.364;7.484;2023-11-21T12:47:48;9.40;99.90
19220;DHT22;9744;49.364;7.484;2023-11-21T12:50:19;9.40;99.90
19220;DHT22;9744;49.364;7.484;2023-11-21T12:52:50;9.40;99.90
19220;DHT22;9744;49.364;7.484;2023-11-21T12:55:20;9.30;99.90
19220;DHT22;9744;49.364;7.484;2023-11-21T12:57:49;9.30;99.90
19220;DHT22;9744;49.364;7.484;2023-11-21T13:00:19;9.30;99.90
19220;DHT22;9744;49.364;7.484;2023-11-21T13:02:56;9.30;99.90
19220;DHT22;9744;49.364;7.484;2023-11-21T13:05:25;9.30;99.90
19220;DHT22;9744;49.364;7.484;2023-11-21T13:07:54;9.30;99.90
19220;DHT22;9744;49.364;7.484;2023-11-21T13:10:24;9.30;99.90
19220;DHT22;9744;49.364;7.484;2023-11-21T13:12:53;9.30;99.90
19220;DHT22;9744;49.364;7.484;2023-11-21T13:15:21;9.30;99.90
19220;DHT22;9744;49.364;7.484;2023-11-21T13:17:48;9.30;99.90
19220;DHT22;9744;49.364;7.484;2023-11-21T13:20:18;9.20;99.90
19220;DHT22;9744;49.364;7.484;2023-11-21T13:22:49;9.20;99.90
19220;DHT22;9744;49.364;7.484;2023-11-21T13:25:20;9.20;99.90
19220;DHT22;9744;49.364;7.484;2023-11-21T13:27:47;9.20;99.90
19220;DHT22;9744;49.364;7.484;2023-11-21T13:30:16;9.20;99.90
19220;DHT22;9744;49.364;7.484;2023-11-21T13:32:45;9.20;99.90
19220;DHT22;9744;49.364;7.484;2023-11-21T13:35:13;9.20;99.90
19220;DHT22;9744;49.364;7.484;2023-11-21T13:37:53;9.20;99.90
19220;DHT22;9744;49.364;7.484;2023-11-21T13:40:22;9.20;99.90
19220;DHT22;9744;49.364;7.484;2023-11-21T13:42:52;9.30;99.90
19220;DHT22;9744;49.364;7.484;2023-11-21T13:45:25;9.20;99.90
19220;DHT22;9744;49.364;7.484;2023-11-21T13:47:55;9.20;99.90
19220;DHT22;9744;49.364;7.484;2023-11-21T13:50:25;9.20;99.90
19220;DHT22;9744;49.364;7.484;2023-11-21T13:53:00;9.20;99.90
19220;DHT22;9744;49.364;7.484;2023-11-21T13:55:31;9.20;99.90
19220;DHT22;9744;49.364;7.484;2023-11-21T13:57:58;9.20;99.90
19220;DHT22;9744;49.364;7.484;2023-11-21T14:00:26;9.20;99.90
19220;DHT22;9744;49.364;7.484;2023-11-21T14:03:07;9.20;99.90
19220;DHT22;9744;49.364;7.484;2023-11-21T14:05:43;9.20;99.90
19220;DHT22;9744;49.364;7.484;2023-11-21T14:08:13;9.20;99.90
19220;DHT22;9744;49.364;7.484;2023-11-21T14:10:43;9.20;99.90
19220;DHT22;9744;49.364;7.484;2023-11-21T14:13:13;9.20;99.90
19220;DHT22;9744;49.364;7.484;2023-11-21T14:15:42;9.20;99.90
19220;DHT22;9744;49.364;7.484;2023-11-21T14:18:12;9.20;99.90
19220;DHT22;9744;49.364;7.484;2023-11-21T14:20:42;9.20;99.90
19220;DHT22;9744;49.364;7.484;2023-11-21T14:23:12;9.20;99.90
19220;DHT22;9744;49.364;7.484;2023-11-21T14:25:40;9.20;99.90
19220;DHT22;9744;49.364;7.484;2023-11-21T14:28:08;9.20;99.90
19220;DHT22;9744;49.364;7.484;2023-11-21T14:30:37;9.20;99.90
19220;DHT22;9744;49.364;7.484;2023-11-21T14:33:05;9.20;99.90
19220;DHT22;9744;49.364;7.484;2023-11-21T14:35:34;9.20;99.90
19220;DHT22;9744;49.364;7.484;2023-11-21T14:38:03;9.20;99.90
19220;DHT22;9744;49.364;7.484;2023-11-21T14:40:32;9.20;99.90
19220;DHT22;9744;49.364;7.484;2023-11-21T14:43:02;9.20;99.90
19220;DHT22;9744;49.364;7.484;2023-11-21T14:45:31;9.20;99.90
19220;DHT22;9744;49.364;7.484;2023-11-21T14:47:58;9.20;99.90
19220;DHT22;9744;49.364;7.484;2023-11-21T14:50:33;9.20;99.90
19220;DHT22;9744;49.364;7.484;2023-11-21T14:53:17;9.20;99.90
19220;DHT22;9744;49.364;7.484;2023-11-21T14:56:02;9.20;99.90
19220;DHT22;9744;49.364;7.484;2023-11-21T14:58:30;9.10;99.90
19220;DHT22;9744;49.364;7.484;2023-11-21T15:00:58;9.10;99.90
19220;DHT22;9744;49.364;7.484;2023-11-21T15:03:25;9.10;99.90
19220;DHT22;9744;49.364;7.484;2023-11-21T15:06:14;9.20;99.90
19220;DHT22;9744;49.364;7.484;2023-11-21T15:08:54;9.20;99.90
19220;DHT22;9744;49.364;7.484;2023-11-21T15:11:39;9.20;99.90
19220;DHT22;9744;49.364;7.484;2023-11-21T15:14:07;9.20;99.90
19220;DHT22;9744;49.364;7.484;2023-11-21T15:16:35;9.20;99.90
19220;DHT22;9744;49.364;7.484;2023-11-21T15:19:06;9.20;99.90
19220;DHT22;9744;49.364;7.484;2023-11-21T15:21:33;9.10;99.90
19220;DHT22;9744;49.364;7.484;2023-11-21T15:24:01;9.10;99.90
19220;DHT22;9744;49.364;7.484;2023-11-21T15:26:28;9.10;99.90
19220;DHT22;9744;49.364;7.484;2023-11-21T15:28:57;9.10;99.90
19220;DHT22;9744;49.364;7.484;2023-11-21T15:31:25;9.10;99.90
19220;DHT22;9744;49.364;7.484;2023-11-21T15:33:52;9.10;99.90
19220;DHT22;9744;49.364;7.484;2023-11-21T15:36:19;9.10;99.90
19220;DHT22;9744;49.364;7.484;2023-11-21T15:38:46;9.10;99.90
19220;DHT22;9744;49.364;7.484;2023-11-21T15:41:14;9.10;99.90
19220;DHT22;9744;49.364;7.484;2023-11-21T15:43:41;9.10;99.90
19220;DHT22;9744;49.364;7.484;2023-11-21T15:46:11;9.10;99.90
19220;DHT22;9744;49.364;7.484;2023-11-21T15:48:38;9.00;99.90
19220;DHT22;9744;49.364;7.484;2023-11-21T15:51:09;9.00;99.90
19220;DHT22;9744;49.364;7.484;2023-11-21T15:53:38;9.00;99.90
19220;DHT22;9744;49.364;7.484;2023-11-21T15:56:07;9.00;99.90
19220;DHT22;9744;49.364;7.484;2023-11-21T15:58:38;9.00;99.90
19220;DHT22;9744;49.364;7.484;2023-11-21T16:01:08;9.00;99.90
19220;DHT22;9744;49.364;7.484;2023-11-21T16:03:40;9.00;99.90
19220;DHT22;9744;49.364;7.484;2023-11-21T16:06:07;8.90;99.90
19220;DHT22;9744;49.364;7.484;2023-11-21T16:08:36;8.90;99.90
19220;DHT22;9744;49.364;7.484;2023-11-21T16:11:04;9.00;99.90
19220;DHT22;9744;49.364;7.484;2023-11-21T16:13:31;9.00;99.90
19220;DHT22;9744;49.364;7.484;2023-11-21T16:16:00;9.00;99.90
19220;DHT22;9744;49.364;7.484;2023-11-21T16:18:27;8.90;99.90
19220;DHT22;9744;49.364;7.484;2023-11-21T16:20:56;8.90;99.90
19220;DHT22;9744;49.364;7.484;2023-11-21T16:23:24;8.90;99.90
19220;DHT22;9744;49.364;7.484;2023-11-21T16:25:51;8.90;99.90
19220;DHT22;9744;49.364;7.484;2023-11-21T16:28:21;8.90;99.90
19220;DHT22;9744;49.364;7.484;2023-11-21T16:30:49;8.90;99.90
19220;DHT22;9744;49.364;7.484;2023-11-21T16:33:16;8.90;99.90